sensor_id;sensor_type;location;lat;lon;timestamp;temperature;humidity
61117;DHT22;47002;50.856;6.580;2022-09-12T00:02:04;11.00;91.60
61117;DHT22;47002;50.856;6.580;2022-09-12T00:04:30;10.90;91.70
61117;DHT22;47002;50.856;6.580;2022-09-12T00:06:56;10.90;91.80
61117;DHT22;47002;50.856;6.580;2022-09-12T00:09:21;10.90;91.80
61117;DHT22;47002;50.856;6.580;2022-09-12T00:11:48;10.90;91.80
61117;DHT22;47002;50.856;6.580;2022-09-12T00:14:16;10.90;91.90
61117;DHT22;47002;50.856;6.580;2022-09-12T00:16:42;10.80;91.90
61117;DHT22;47002;50.856;6.580;2022-09-12T00:19:09;10.90;92.00
61117;DHT22;47002;50.856;6.580;2022-09-12T00:21:36;10.90;92.10
61117;DHT22;47002;50.856;6.580;2022-09-12T00:24:02;10.80;92.10
61117;DHT22;47002;50.856;6.580;2022-09-12T00:26:28;10.80;92.10
61117;DHT22;47002;50.856;6.580;2022-09-12T00:28:55;10.80;92.10
61117;DHT22;47002;50.856;6.580;2022-09-12T00:31:23;10.80;92.10
61117;DHT22;47002;50.856;6.580;2022-09-12T00:33:50;10.80;92.10
61117;DHT22;47002;50.856;6.580;2022-09-12T00:36:18;10.70;92.10
61117;DHT22;47002;50.856;6.580;2022-09-12T00:38:45;10.70;92.10
61117;DHT22;47002;50.856;6.580;2022-09-12T00:41:15;10.70;92.10
61117;DHT22;47002;50.856;6.580;2022-09-12T00:43:42;10.70;92.10
61117;DHT22;47002;50.856;6.580;2022-09-12T00:46:16;10.60;92.00
61117;DHT22;47002;50.856;6.580;2022-09-12T00:48:48;10.60;92.00
61117;DHT22;47002;50.856;6.580;2022-09-12T00:51:15;10.60;92.00
61117;DHT22;47002;50.856;6.580;2022-09-12T00:53:43;10.50;92.20
61117;DHT22;47002;50.856;6.580;2022-09-12T00:56:11;10.50;92.30
61117;DHT22;47002;50.856;6.580;2022-09-12T00:58:41;10.50;92.40
61117;DHT22;47002;50.856;6.580;2022-09-12T01:01:08;10.40;92.40
61117;DHT22;47002;50.856;6.580;2022-09-12T01:03:35;10.40;92.50
61117;DHT22;47002;50.856;6.580;2022-09-12T01:06:06;10.40;92.50
61117;DHT22;47002;50.856;6.580;2022-09-12T01:08:34;10.40;92.60
61117;DHT22;47002;50.856;6.580;2022-09-12T01:11:01;10.40;92.70
61117;DHT22;47002;50.856;6.580;2022-09-12T01:13:27;10.30;92.70
61117;DHT22;47002;50.856;6.580;2022-09-12T01:15:53;10.30;92.70
61117;DHT22;47002;50.856;6.580;2022-09-12T01:18:24;10.30;92.70
61117;DHT22;47002;50.856;6.580;2022-09-12T01:21:08;10.30;92.80
61117;DHT22;47002;50.856;6.580;2022-09-12T01:23:50;10.30;92.90
61117;DHT22;47002;50.856;6.580;2022-09-12T01:29:43;10.30;93.20
61117;DHT22;47002;50.856;6.580;2022-09-12T01:32:20;10.20;93.20
61117;DHT22;47002;50.856;6.580;2022-09-12T01:34:52;10.30;93.40
61117;DHT22;47002;50.856;6.580;2022-09-12T01:37:25;10.30;93.50
61117;DHT22;47002;50.856;6.580;2022-09-12T01:39:59;10.30;93.50
61117;DHT22;47002;50.856;6.580;2022-09-12T01:42:30;10.30;93.40
61117;DHT22;47002;50.856;6.580;2022-09-12T01:45:03;10.30;93.40
61117;DHT22;47002;50.856;6.580;2022-09-12T01:47:38;10.30;93.40
61117;DHT22;47002;50.856;6.580;2022-09-12T01:50:07;10.30;93.50
61117;DHT22;47002;50.856;6.580;2022-09-12T01:52:37;10.30;93.50
61117;DHT22;47002;50.856;6.580;2022-09-12T01:55:06;10.30;93.50
61117;DHT22;47002;50.856;6.580;2022-09-12T01:57:38;10.30;93.50
61117;DHT22;47002;50.856;6.580;2022-09-12T02:00:08;10.30;93.60
61117;DHT22;47002;50.856;6.580;2022-09-12T02:02:37;10.30;93.60
61117;DHT22;47002;50.856;6.580;2022-09-12T02:05:07;10.30;93.60
61117;DHT22;47002;50.856;6.580;2022-09-12T02:07:37;10.20;93.50
61117;DHT22;47002;50.856;6.580;2022-09-12T02:10:07;10.20;93.50
61117;DHT22;47002;50.856;6.580;2022-09-12T02:12:38;10.20;93.50
61117;DHT22;47002;50.856;6.580;2022-09-12T02:15:08;10.20;93.50
61117;DHT22;47002;50.856;6.580;2022-09-12T02:17:38;10.20;93.50
61117;DHT22;47002;50.856;6.580;2022-09-12T02:20:11;10.20;93.60
61117;DHT22;47002;50.856;6.580;2022-09-12T02:22:38;10.10;93.50
61117;DHT22;47002;50.856;6.580;2022-09-12T02:25:07;10.10;93.50
61117;DHT22;47002;50.856;6.580;2022-09-12T02:27:38;10.10;93.40
61117;DHT22;47002;50.856;6.580;2022-09-12T02:30:07;10.10;93.40
61117;DHT22;47002;50.856;6.580;2022-09-12T02:32:38;10.00;93.40
61117;DHT22;47002;50.856;6.580;2022-09-12T02:35:12;10.00;93.40
61117;DHT22;47002;50.856;6.580;2022-09-12T02:37:48;9.90;93.50
61117;DHT22;47002;50.856;6.580;2022-09-12T02:40:18;9.90;93.50
61117;DHT22;47002;50.856;6.580;2022-09-12T02:42:44;9.90;93.60
61117;DHT22;47002;50.856;6.580;2022-09-12T02:45:10;9.90;93.60
61117;DHT22;47002;50.856;6.580;2022-09-12T02:47:42;9.90;93.70
61117;DHT22;47002;50.856;6.580;2022-09-12T02:50:08;9.90;93.70
61117;DHT22;47002;50.856;6.580;2022-09-12T02:52:34;9.90;93.70
61117;DHT22;47002;50.856;6.580;2022-09-12T02:55:01;9.90;93.70
61117;DHT22;47002;50.856;6.580;2022-09-12T02:57:27;9.80;93.70
61117;DHT22;47002;50.856;6.580;2022-09-12T02:59:55;9.90;93.80
61117;DHT22;47002;50.856;6.580;2022-09-12T03:02:29;9.80;93.90
61117;DHT22;47002;50.856;6.580;2022-09-12T03:05:16;9.80;94.00
61117;DHT22;47002;50.856;6.580;2022-09-12T03:08:09;9.80;94.10
61117;DHT22;47002;50.856;6.580;2022-09-12T03:10:44;9.90;94.10
61117;DHT22;47002;50.856;6.580;2022-09-12T03:13:20;9.80;94.10
61117;DHT22;47002;50.856;6.580;2022-09-12T03:15:54;9.80;94.20
61117;DHT22;47002;50.856;6.580;2022-09-12T03:18:38;9.80;94.20
61117;DHT22;47002;50.856;6.580;2022-09-12T03:21:11;9.80;94.30
61117;DHT22;47002;50.856;6.580;2022-09-12T03:23:44;9.80;94.30
61117;DHT22;47002;50.856;6.580;2022-09-12T03:26:15;9.80;94.30
61117;DHT22;47002;50.856;6.580;2022-09-12T03:28:43;9.80;94.30
61117;DHT22;47002;50.856;6.580;2022-09-12T03:31:14;9.80;94.30
61117;DHT22;47002;50.856;6.580;2022-09-12T03:33:40;9.80;94.30
61117;DHT22;47002;50.856;6.580;2022-09-12T03:36:07;9.70;94.30
61117;DHT22;47002;50.856;6.580;2022-09-12T03:38:36;9.70;94.30
61117;DHT22;47002;50.856;6.580;2022-09-12T03:41:01;9.70;94.30
61117;DHT22;47002;50.856;6.580;2022-09-12T03:43:27;9.70;94.30
61117;DHT22;47002;50.856;6.580;2022-09-12T03:45:53;9.70;94.30
61117;DHT22;47002;50.856;6.580;2022-09-12T03:48:19;9.70;94.40
61117;DHT22;47002;50.856;6.580;2022-09-12T03:50:45;9.60;94.40
61117;DHT22;47002;50.856;6.580;2022-09-12T03:53:10;9.70;94.40
61117;DHT22;47002;50.856;6.580;2022-09-12T03:55:39;9.60;94.40
61117;DHT22;47002;50.856;6.580;2022-09-12T03:58:04;9.60;94.40
61117;DHT22;47002;50.856;6.580;2022-09-12T04:00:30;9.60;94.40
61117;DHT22;47002;50.856;6.580;2022-09-12T04:02:56;9.60;94.50
61117;DHT22;47002;50.856;6.580;2022-09-12T04:05:21;9.60;94.50
61117;DHT22;47002;50.856;6.580;2022-09-12T04:07:47;9.60;94.50
61117;DHT22;47002;50.856;6.580;2022-09-12T04:10:13;9.60;94.50
61117;DHT22;47002;50.856;6.580;2022-09-12T04:12:40;9.60;94.60
61117;DHT22;47002;50.856;6.580;2022-09-12T04:15:07;9.60;94.60
61117;DHT22;47002;50.856;6.580;2022-09-12T04:17:33;9.60;94.70
61117;DHT22;47002;50.856;6.580;2022-09-12T04:19:59;9.60;94.70
61117;DHT22;47002;50.856;6.580;2022-09-12T04:22:25;9.70;94.80
61117;DHT22;47002;50.856;6.580;2022-09-12T04:24:50;9.70;94.70
61117;DHT22;47002;50.856;6.580;2022-09-12T04:27:16;9.70;94.80
61117;DHT22;47002;50.856;6.580;2022-09-12T04:29:43;9.70;94.80
61117;DHT22;47002;50.856;6.580;2022-09-12T04:32:09;9.70;94.70
61117;DHT22;47002;50.856;6.580;2022-09-12T04:34:35;9.70;94.60
61117;DHT22;47002;50.856;6.580;2022-09-12T04:37:00;9.70;94.60
61117;DHT22;47002;50.856;6.580;2022-09-12T04:39:26;9.70;94.50
61117;DHT22;47002;50.856;6.580;2022-09-12T04:41:52;9.60;94.40
61117;DHT22;47002;50.856;6.580;2022-09-12T04:44:17;9.60;94.40
61117;DHT22;47002;50.856;6.580;2022-09-12T04:46:45;9.60;94.50
61117;DHT22;47002;50.856;6.580;2022-09-12T04:49:12;9.60;94.50
61117;DHT22;47002;50.856;6.580;2022-09-12T04:51:39;9.60;94.60
61117;DHT22;47002;50.856;6.580;2022-09-12T04:54:07;9.60;94.50
61117;DHT22;47002;50.856;6.580;2022-09-12T04:56:36;9.60;94.50
61117;DHT22;47002;50.856;6.580;2022-09-12T04:59:02;9.60;94.50
61117;DHT22;47002;50.856;6.580;2022-09-12T05:01:28;9.70;94.70
61117;DHT22;47002;50.856;6.580;2022-09-12T05:03:56;9.80;94.90
61117;DHT22;47002;50.856;6.580;2022-09-12T05:06:24;9.90;95.00
61117;DHT22;47002;50.856;6.580;2022-09-12T05:08:51;9.90;94.90
61117;DHT22;47002;50.856;6.580;2022-09-12T05:11:18;9.90;94.70
61117;DHT22;47002;50.856;6.580;2022-09-12T05:13:44;9.80;94.60
61117;DHT22;47002;50.856;6.580;2022-09-12T05:16:12;9.80;94.40
61117;DHT22;47002;50.856;6.580;2022-09-12T05:18:38;9.80;94.30
61117;DHT22;47002;50.856;6.580;2022-09-12T05:21:07;9.80;94.30
61117;DHT22;47002;50.856;6.580;2022-09-12T05:23:33;9.80;94.30
61117;DHT22;47002;50.856;6.580;2022-09-12T05:26:00;9.80;94.40
61117;DHT22;47002;50.856;6.580;2022-09-12T05:28:28;9.90;94.40
61117;DHT22;47002;50.856;6.580;2022-09-12T05:31:00;9.90;94.30
61117;DHT22;47002;50.856;6.580;2022-09-12T05:33:25;10.00;94.30
61117;DHT22;47002;50.856;6.580;2022-09-12T05:35:51;10.00;94.30
61117;DHT22;47002;50.856;6.580;2022-09-12T05:38:18;10.00;94.30
61117;DHT22;47002;50.856;6.580;2022-09-12T05:40:44;10.10;94.30
61117;DHT22;47002;50.856;6.580;2022-09-12T05:43:09;10.20;94.50
61117;DHT22;47002;50.856;6.580;2022-09-12T05:45:35;10.30;94.50
61117;DHT22;47002;50.856;6.580;2022-09-12T05:48:01;10.40;94.50
61117;DHT22;47002;50.856;6.580;2022-09-12T05:50:27;10.50;94.50
61117;DHT22;47002;50.856;6.580;2022-09-12T05:52:53;10.60;94.30
61117;DHT22;47002;50.856;6.580;2022-09-12T05:55:20;10.60;94.20
61117;DHT22;47002;50.856;6.580;2022-09-12T05:57:46;10.70;94.10
61117;DHT22;47002;50.856;6.580;2022-09-12T06:00:13;10.80;94.00
61117;DHT22;47002;50.856;6.580;2022-09-12T06:02:38;10.90;93.90
61117;DHT22;47002;50.856;6.580;2022-09-12T06:05:04;11.00;93.90
61117;DHT22;47002;50.856;6.580;2022-09-12T06:07:30;11.10;93.70
61117;DHT22;47002;50.856;6.580;2022-09-12T06:09:56;11.10;93.50
61117;DHT22;47002;50.856;6.580;2022-09-12T06:12:23;11.10;93.30
61117;DHT22;47002;50.856;6.580;2022-09-12T06:14:48;11.20;93.10
61117;DHT22;47002;50.856;6.580;2022-09-12T06:17:14;11.30;93.00
61117;DHT22;47002;50.856;6.580;2022-09-12T06:19:40;11.40;92.90
61117;DHT22;47002;50.856;6.580;2022-09-12T06:22:05;11.40;92.80
61117;DHT22;47002;50.856;6.580;2022-09-12T06:24:31;11.60;92.60
61117;DHT22;47002;50.856;6.580;2022-09-12T06:26:57;11.60;92.50
61117;DHT22;47002;50.856;6.580;2022-09-12T06:29:24;11.70;92.40
61117;DHT22;47002;50.856;6.580;2022-09-12T06:31:49;11.80;92.20
61117;DHT22;47002;50.856;6.580;2022-09-12T06:34:15;12.00;92.10
61117;DHT22;47002;50.856;6.580;2022-09-12T06:36:43;12.10;92.00
61117;DHT22;47002;50.856;6.580;2022-09-12T06:39:11;12.20;91.90
61117;DHT22;47002;50.856;6.580;2022-09-12T06:41:37;12.40;91.60
61117;DHT22;47002;50.856;6.580;2022-09-12T06:44:03;12.60;91.10
61117;DHT22;47002;50.856;6.580;2022-09-12T06:46:30;12.70;90.70
61117;DHT22;47002;50.856;6.580;2022-09-12T06:48:56;12.80;90.50
61117;DHT22;47002;50.856;6.580;2022-09-12T06:51:22;12.90;90.20
61117;DHT22;47002;50.856;6.580;2022-09-12T06:53:48;13.10;90.00
61117;DHT22;47002;50.856;6.580;2022-09-12T06:56:15;13.10;89.70
61117;DHT22;47002;50.856;6.580;2022-09-12T06:58:42;13.30;89.30
61117;DHT22;47002;50.856;6.580;2022-09-12T07:01:10;13.40;89.00
61117;DHT22;47002;50.856;6.580;2022-09-12T07:03:38;13.50;88.70
61117;DHT22;47002;50.856;6.580;2022-09-12T07:06:05;13.60;88.40
61117;DHT22;47002;50.856;6.580;2022-09-12T07:08:31;13.60;88.20
61117;DHT22;47002;50.856;6.580;2022-09-12T07:10:58;13.70;88.10
61117;DHT22;47002;50.856;6.580;2022-09-12T07:13:24;13.80;87.90
61117;DHT22;47002;50.856;6.580;2022-09-12T07:15:49;13.90;87.70
61117;DHT22;47002;50.856;6.580;2022-09-12T07:18:15;14.00;87.50
61117;DHT22;47002;50.856;6.580;2022-09-12T07:20:42;14.10;87.30
61117;DHT22;47002;50.856;6.580;2022-09-12T07:23:08;14.20;87.10
61117;DHT22;47002;50.856;6.580;2022-09-12T07:25:33;14.30;86.80
61117;DHT22;47002;50.856;6.580;2022-09-12T07:27:59;14.50;86.50
61117;DHT22;47002;50.856;6.580;2022-09-12T07:30:25;14.60;86.00
61117;DHT22;47002;50.856;6.580;2022-09-12T07:32:51;14.80;85.80
61117;DHT22;47002;50.856;6.580;2022-09-12T07:35:17;14.90;85.40
61117;DHT22;47002;50.856;6.580;2022-09-12T07:37:44;15.10;84.80
61117;DHT22;47002;50.856;6.580;2022-09-12T07:40:10;15.30;84.50
61117;DHT22;47002;50.856;6.580;2022-09-12T07:42:35;15.50;84.10
61117;DHT22;47002;50.856;6.580;2022-09-12T07:45:01;15.60;83.70
61117;DHT22;47002;50.856;6.580;2022-09-12T07:47:27;15.80;83.20
61117;DHT22;47002;50.856;6.580;2022-09-12T07:49:52;16.00;82.80
61117;DHT22;47002;50.856;6.580;2022-09-12T07:52:18;16.10;82.20
61117;DHT22;47002;50.856;6.580;2022-09-12T07:54:45;16.20;81.50
61117;DHT22;47002;50.856;6.580;2022-09-12T07:57:11;16.30;80.90
61117;DHT22;47002;50.856;6.580;2022-09-12T07:59:36;16.40;80.40
61117;DHT22;47002;50.856;6.580;2022-09-12T08:02:02;16.50;80.00
61117;DHT22;47002;50.856;6.580;2022-09-12T08:04:27;16.60;80.30
61117;DHT22;47002;50.856;6.580;2022-09-12T08:06:53;16.70;79.60
61117;DHT22;47002;50.856;6.580;2022-09-12T08:09:19;16.80;79.00
61117;DHT22;47002;50.856;6.580;2022-09-12T08:11:46;16.90;79.00
61117;DHT22;47002;50.856;6.580;2022-09-12T08:14:11;17.10;78.70
61117;DHT22;47002;50.856;6.580;2022-09-12T08:16:37;17.10;78.30
61117;DHT22;47002;50.856;6.580;2022-09-12T08:19:03;17.20;77.60
61117;DHT22;47002;50.856;6.580;2022-09-12T08:21:30;17.40;76.90
61117;DHT22;47002;50.856;6.580;2022-09-12T08:23:58;17.40;76.70
61117;DHT22;47002;50.856;6.580;2022-09-12T08:26:24;17.40;76.40
61117;DHT22;47002;50.856;6.580;2022-09-12T08:28:52;17.40;76.10
61117;DHT22;47002;50.856;6.580;2022-09-12T08:31:19;17.30;76.00
61117;DHT22;47002;50.856;6.580;2022-09-12T08:33:45;17.30;76.20
61117;DHT22;47002;50.856;6.580;2022-09-12T08:36:13;17.30;76.10
61117;DHT22;47002;50.856;6.580;2022-09-12T08:38:40;17.30;76.10
61117;DHT22;47002;50.856;6.580;2022-09-12T08:41:10;17.30;76.10
61117;DHT22;47002;50.856;6.580;2022-09-12T08:43:57;17.40;76.00
61117;DHT22;47002;50.856;6.580;2022-09-12T08:46:31;17.60;75.30
61117;DHT22;47002;50.856;6.580;2022-09-12T08:48:58;17.70;75.40
61117;DHT22;47002;50.856;6.580;2022-09-12T08:51:26;17.80;74.40
61117;DHT22;47002;50.856;6.580;2022-09-12T08:53:54;18.00;74.20
61117;DHT22;47002;50.856;6.580;2022-09-12T08:56:21;18.20;73.40
61117;DHT22;47002;50.856;6.580;2022-09-12T08:58:47;18.30;73.00
61117;DHT22;47002;50.856;6.580;2022-09-12T09:01:23;18.50;72.20
61117;DHT22;47002;50.856;6.580;2022-09-12T09:07:05;18.80;71.50
61117;DHT22;47002;50.856;6.580;2022-09-12T09:09:47;19.00;71.30
61117;DHT22;47002;50.856;6.580;2022-09-12T09:12:23;19.10;70.70
61117;DHT22;47002;50.856;6.580;2022-09-12T09:15:10;19.30;70.50
61117;DHT22;47002;50.856;6.580;2022-09-12T09:17:41;19.50;69.90
61117;DHT22;47002;50.856;6.580;2022-09-12T09:20:21;19.60;69.20
61117;DHT22;47002;50.856;6.580;2022-09-12T09:22:50;19.70;68.70
61117;DHT22;47002;50.856;6.580;2022-09-12T09:25:20;19.90;68.10
61117;DHT22;47002;50.856;6.580;2022-09-12T09:27:49;20.10;67.30
61117;DHT22;47002;50.856;6.580;2022-09-12T09:30:18;20.20;66.80
61117;DHT22;47002;50.856;6.580;2022-09-12T09:32:49;20.40;66.20
61117;DHT22;47002;50.856;6.580;2022-09-12T09:35:17;20.60;65.10
61117;DHT22;47002;50.856;6.580;2022-09-12T09:38:00;20.70;64.80
61117;DHT22;47002;50.856;6.580;2022-09-12T09:40:33;20.80;64.30
61117;DHT22;47002;50.856;6.580;2022-09-12T09:43:07;21.00;63.50
61117;DHT22;47002;50.856;6.580;2022-09-12T09:45:37;21.00;62.10
61117;DHT22;47002;50.856;6.580;2022-09-12T09:48:14;21.10;62.20
61117;DHT22;47002;50.856;6.580;2022-09-12T09:50:41;21.10;62.00
61117;DHT22;47002;50.856;6.580;2022-09-12T09:53:11;21.10;62.00
61117;DHT22;47002;50.856;6.580;2022-09-12T09:55:42;21.20;61.50
61117;DHT22;47002;50.856;6.580;2022-09-12T09:58:09;21.30;60.50
61117;DHT22;47002;50.856;6.580;2022-09-12T10:00:35;21.40;60.30
61117;DHT22;47002;50.856;6.580;2022-09-12T10:03:29;21.40;60.50
61117;DHT22;47002;50.856;6.580;2022-09-12T10:05:58;21.60;59.70
61117;DHT22;47002;50.856;6.580;2022-09-12T10:08:27;21.70;58.30
61117;DHT22;47002;50.856;6.580;2022-09-12T10:10:59;21.70;58.70
61117;DHT22;47002;50.856;6.580;2022-09-12T10:13:35;21.80;58.00
61117;DHT22;47002;50.856;6.580;2022-09-12T10:16:03;21.90;57.50
61117;DHT22;47002;50.856;6.580;2022-09-12T10:18:35;22.00;56.00
61117;DHT22;47002;50.856;6.580;2022-09-12T10:21:11;22.00;56.10
61117;DHT22;47002;50.856;6.580;2022-09-12T10:23:38;22.10;55.50
61117;DHT22;47002;50.856;6.580;2022-09-12T10:26:08;22.10;55.70
61117;DHT22;47002;50.856;6.580;2022-09-12T10:28:36;22.30;56.30
61117;DHT22;47002;50.856;6.580;2022-09-12T10:31:03;22.30;54.10
61117;DHT22;47002;50.856;6.580;2022-09-12T10:33:38;22.40;55.70
61117;DHT22;47002;50.856;6.580;2022-09-12T10:36:05;22.60;54.70
61117;DHT22;47002;50.856;6.580;2022-09-12T10:38:31;22.70;53.60
61117;DHT22;47002;50.856;6.580;2022-09-12T10:41:00;22.80;54.20
61117;DHT22;47002;50.856;6.580;2022-09-12T10:43:29;22.90;53.00
61117;DHT22;47002;50.856;6.580;2022-09-12T10:46:19;23.00;52.20
61117;DHT22;47002;50.856;6.580;2022-09-12T10:48:47;23.10;52.20
61117;DHT22;47002;50.856;6.580;2022-09-12T10:51:25;23.30;51.70
61117;DHT22;47002;50.856;6.580;2022-09-12T10:53:53;23.40;50.50
61117;DHT22;47002;50.856;6.580;2022-09-12T10:56:21;23.60;51.10
61117;DHT22;47002;50.856;6.580;2022-09-12T10:59:01;23.70;49.70
61117;DHT22;47002;50.856;6.580;2022-09-12T11:01:36;23.80;49.90
61117;DHT22;47002;50.856;6.580;2022-09-12T11:04:29;23.90;49.40
61117;DHT22;47002;50.856;6.580;2022-09-12T11:10:03;24.10;49.40
61117;DHT22;47002;50.856;6.580;2022-09-12T11:12:36;24.20;48.00
61117;DHT22;47002;50.856;6.580;2022-09-12T11:15:22;24.20;47.90
61117;DHT22;47002;50.856;6.580;2022-09-12T11:17:57;24.20;48.10
61117;DHT22;47002;50.856;6.580;2022-09-12T11:20:41;24.40;47.20
61117;DHT22;47002;50.856;6.580;2022-09-12T11:23:39;24.50;46.30
61117;DHT22;47002;50.856;6.580;2022-09-12T11:26:17;24.60;46.80
61117;DHT22;47002;50.856;6.580;2022-09-12T11:28:51;24.60;44.20
61117;DHT22;47002;50.856;6.580;2022-09-12T11:31:38;24.60;45.60
61117;DHT22;47002;50.856;6.580;2022-09-12T11:34:08;24.60;46.00
61117;DHT22;47002;50.856;6.580;2022-09-12T11:36:39;24.60;46.00
61117;DHT22;47002;50.856;6.580;2022-09-12T11:39:12;24.70;45.20
61117;DHT22;47002;50.856;6.580;2022-09-12T11:41:41;24.80;44.90
61117;DHT22;47002;50.856;6.580;2022-09-12T11:44:14;25.00;44.80
61117;DHT22;47002;50.856;6.580;2022-09-12T11:46:43;25.10;44.30
61117;DHT22;47002;50.856;6.580;2022-09-12T11:49:18;25.20;44.60
61117;DHT22;47002;50.856;6.580;2022-09-12T11:51:49;25.40;43.40
61117;DHT22;47002;50.856;6.580;2022-09-12T11:54:21;25.60;43.60
61117;DHT22;47002;50.856;6.580;2022-09-12T11:56:54;25.60;42.90
61117;DHT22;47002;50.856;6.580;2022-09-12T11:59:30;25.60;40.60
61117;DHT22;47002;50.856;6.580;2022-09-12T12:01:58;25.80;39.30
61117;DHT22;47002;50.856;6.580;2022-09-12T12:04:29;26.00;38.80
61117;DHT22;47002;50.856;6.580;2022-09-12T12:07:02;26.10;38.00
61117;DHT22;47002;50.856;6.580;2022-09-12T12:09:29;26.30;37.90
61117;DHT22;47002;50.856;6.580;2022-09-12T12:11:56;26.40;37.30
61117;DHT22;47002;50.856;6.580;2022-09-12T12:14:27;26.60;37.20
61117;DHT22;47002;50.856;6.580;2022-09-12T12:16:54;26.70;36.50
61117;DHT22;47002;50.856;6.580;2022-09-12T12:19:31;26.70;36.30
61117;DHT22;47002;50.856;6.580;2022-09-12T12:22:13;26.80;36.50
61117;DHT22;47002;50.856;6.580;2022-09-12T12:25:06;26.90;36.40
61117;DHT22;47002;50.856;6.580;2022-09-12T12:27:48;27.10;35.70
61117;DHT22;47002;50.856;6.580;2022-09-12T12:32:59;27.30;34.80
61117;DHT22;47002;50.856;6.580;2022-09-12T12:36:01;27.50;35.80
61117;DHT22;47002;50.856;6.580;2022-09-12T12:38:28;27.60;34.60
61117;DHT22;47002;50.856;6.580;2022-09-12T12:44:49;27.90;34.40
61117;DHT22;47002;50.856;6.580;2022-09-12T12:47:17;28.00;32.90
61117;DHT22;47002;50.856;6.580;2022-09-12T12:49:49;27.90;32.60
61117;DHT22;47002;50.856;6.580;2022-09-12T12:52:17;27.80;32.40
61117;DHT22;47002;50.856;6.580;2022-09-12T12:54:53;27.70;32.80
61117;DHT22;47002;50.856;6.580;2022-09-12T12:57:36;28.00;32.30
61117;DHT22;47002;50.856;6.580;2022-09-12T13:00:21;28.50;32.30
61117;DHT22;47002;50.856;6.580;2022-09-12T13:02:53;29.20;31.10
61117;DHT22;47002;50.856;6.580;2022-09-12T13:05:22;30.00;30.00
61117;DHT22;47002;50.856;6.580;2022-09-12T13:07:54;30.80;29.30
61117;DHT22;47002;50.856;6.580;2022-09-12T13:10:22;31.60;28.10
61117;DHT22;47002;50.856;6.580;2022-09-12T13:12:50;32.50;27.10
61117;DHT22;47002;50.856;6.580;2022-09-12T13:15:47;33.20;26.50
61117;DHT22;47002;50.856;6.580;2022-09-12T13:18:17;34.00;25.50
61117;DHT22;47002;50.856;6.580;2022-09-12T13:20:47;34.60;24.80
61117;DHT22;47002;50.856;6.580;2022-09-12T13:23:21;34.90;24.00
61117;DHT22;47002;50.856;6.580;2022-09-12T13:25:51;35.20;23.80
61117;DHT22;47002;50.856;6.580;2022-09-12T13:28:17;35.30;22.20
61117;DHT22;47002;50.856;6.580;2022-09-12T13:30:46;35.10;22.10
61117;DHT22;47002;50.856;6.580;2022-09-12T13:33:18;35.00;22.80
61117;DHT22;47002;50.856;6.580;2022-09-12T13:39:09;36.10;21.70
61117;DHT22;47002;50.856;6.580;2022-09-12T13:44:40;36.20;21.20
61117;DHT22;47002;50.856;6.580;2022-09-12T13:47:11;36.40;21.40
61117;DHT22;47002;50.856;6.580;2022-09-12T13:49:39;36.60;21.30
61117;DHT22;47002;50.856;6.580;2022-09-12T13:52:07;36.70;21.70
61117;DHT22;47002;50.856;6.580;2022-09-12T13:54:36;36.90;21.50
61117;DHT22;47002;50.856;6.580;2022-09-12T13:57:03;37.00;21.00
61117;DHT22;47002;50.856;6.580;2022-09-12T13:59:37;37.00;20.80
61117;DHT22;47002;50.856;6.580;2022-09-12T14:02:17;36.80;21.50
61117;DHT22;47002;50.856;6.580;2022-09-12T14:04:46;36.90;21.90
61117;DHT22;47002;50.856;6.580;2022-09-12T14:07:14;37.10;20.80
61117;DHT22;47002;50.856;6.580;2022-09-12T14:09:44;37.00;20.60
61117;DHT22;47002;50.856;6.580;2022-09-12T14:12:14;36.90;20.70
61117;DHT22;47002;50.856;6.580;2022-09-12T14:14:40;36.60;21.30
61117;DHT22;47002;50.856;6.580;2022-09-12T14:17:16;36.60;21.40
61117;DHT22;47002;50.856;6.580;2022-09-12T14:19:42;36.80;21.30
61117;DHT22;47002;50.856;6.580;2022-09-12T14:22:08;37.00;21.10
61117;DHT22;47002;50.856;6.580;2022-09-12T14:24:36;37.10;21.10
61117;DHT22;47002;50.856;6.580;2022-09-12T14:27:03;37.00;20.60
61117;DHT22;47002;50.856;6.580;2022-09-12T14:29:29;36.70;21.20
61117;DHT22;47002;50.856;6.580;2022-09-12T14:32:04;36.70;21.20
61117;DHT22;47002;50.856;6.580;2022-09-12T14:34:31;37.00;21.00
61117;DHT22;47002;50.856;6.580;2022-09-12T14:36:57;37.20;20.70
61117;DHT22;47002;50.856;6.580;2022-09-12T14:39:27;37.10;20.10
61117;DHT22;47002;50.856;6.580;2022-09-12T14:42:04;36.70;21.00
61117;DHT22;47002;50.856;6.580;2022-09-12T14:44:31;36.10;21.90
61117;DHT22;47002;50.856;6.580;2022-09-12T14:47:00;35.80;21.80
61117;DHT22;47002;50.856;6.580;2022-09-12T14:49:36;35.50;22.60
61117;DHT22;47002;50.856;6.580;2022-09-12T14:52:03;35.10;23.00
61117;DHT22;47002;50.856;6.580;2022-09-12T14:54:37;35.10;23.00
61117;DHT22;47002;50.856;6.580;2022-09-12T14:57:05;35.40;23.00
61117;DHT22;47002;50.856;6.580;2022-09-12T14:59:37;35.80;21.80
61117;DHT22;47002;50.856;6.580;2022-09-12T15:02:21;36.00;21.70
61117;DHT22;47002;50.856;6.580;2022-09-12T15:04:50;36.00;21.20
61117;DHT22;47002;50.856;6.580;2022-09-12T15:07:23;35.70;21.80
61117;DHT22;47002;50.856;6.580;2022-09-12T15:09:52;35.70;22.10
61117;DHT22;47002;50.856;6.580;2022-09-12T15:12:18;35.90;21.80
61117;DHT22;47002;50.856;6.580;2022-09-12T15:14:44;36.10;21.90
61117;DHT22;47002;50.856;6.580;2022-09-12T15:17:09;36.30;21.90
61117;DHT22;47002;50.856;6.580;2022-09-12T15:19:35;36.40;21.50
61117;DHT22;47002;50.856;6.580;2022-09-12T15:22:02;36.50;21.10
61117;DHT22;47002;50.856;6.580;2022-09-12T15:24:28;36.60;21.30
61117;DHT22;47002;50.856;6.580;2022-09-12T15:26:53;36.70;20.90
61117;DHT22;47002;50.856;6.580;2022-09-12T15:29:19;36.60;20.60
61117;DHT22;47002;50.856;6.580;2022-09-12T15:31:45;36.20;20.80
61117;DHT22;47002;50.856;6.580;2022-09-12T15:34:11;35.90;20.80
61117;DHT22;47002;50.856;6.580;2022-09-12T15:36:37;35.60;21.10
61117;DHT22;47002;50.856;6.580;2022-09-12T15:39:04;35.10;21.60
61117;DHT22;47002;50.856;6.580;2022-09-12T15:41:32;34.60;22.20
61117;DHT22;47002;50.856;6.580;2022-09-12T15:43:58;34.00;22.50
61117;DHT22;47002;50.856;6.580;2022-09-12T15:46:23;33.30;23.60
61117;DHT22;47002;50.856;6.580;2022-09-12T15:48:49;32.80;23.80
61117;DHT22;47002;50.856;6.580;2022-09-12T15:51:16;32.30;24.50
61117;DHT22;47002;50.856;6.580;2022-09-12T15:53:43;31.80;26.40
61117;DHT22;47002;50.856;6.580;2022-09-12T15:56:11;31.00;28.40
61117;DHT22;47002;50.856;6.580;2022-09-12T15:58:36;30.80;29.50
61117;DHT22;47002;50.856;6.580;2022-09-12T16:01:02;30.90;29.50
61117;DHT22;47002;50.856;6.580;2022-09-12T16:03:28;31.40;29.00
61117;DHT22;47002;50.856;6.580;2022-09-12T16:05:55;31.50;28.30
61117;DHT22;47002;50.856;6.580;2022-09-12T16:08:21;31.40;28.90
61117;DHT22;47002;50.856;6.580;2022-09-12T16:10:51;31.50;29.10